Cheyenne Wells, Colorado
Current Conditions -  °F | °C
As of 1:53 PM on Tuesday 25 Nov 2014 (Local Time) from KITR Reporting Station
Clear Clear  
Wind Chill: 42°   Ceiling: Unl
Heat Index: 48°   Visibility: 10mi
Dew Point:   Wind: 14mph
Humidity: 20%   Direction: 240°WSW
Pressure: 29.89"   Gusts: NA
Location:  38.82°N, 102.35°W
Report Text: KITR 252053Z AUTO 24012KT 10SM CLR 09/M13 A2989 RMK AO2 SLP133 T00891133 56032
Loading
Personal Weather Stations






























Interactive Weather Map New forecast layout! Learn more

10-Day Weather Forecast

Advertisements
Track Severe Weather on mobile